Time;durP1;ratioP1;P1;durP2;ratioP2;P2;SDS_P1;SDS_P2;PMS_P1;PMS_P2;Temp;Humidity;BMP_temperature;BMP_pressure;BME280_temperature;BME280_humidity;BME280_pressure;Samples;Min_cycle;Max_cycle;Signal;HPM_P1;HPM_P2
2022/03/16 00:00:24;;;;;;;;;;;;;;;14.11;27.18;100020.78;4483375;31;34286;-65
2022/03/16 00:02:53;;;;;;;;;;;;;;;13.61;27.93;100007.06;4480833;31;33212;-65
2022/03/16 00:05:23;;;;;;;;;;;;;;;12.77;29.87;99987.88;4481448;31;34128;-65
2022/03/16 00:07:54;;;;;;;;;;;;;;;13.09;29.45;99989.81;4481627;31;33074;-65
2022/03/16 00:10:23;;;;;;;;;;;;;;;13.36;29.75;99998.34;4489032;31;35295;-63
2022/03/16 00:12:51;;;;;;;;;;;;;;;13.76;28.70;100005.78;4488203;31;32128;-64
2022/03/16 00:15:20;;;;;;;;;;;;;;;13.55;29.14;100011.13;4486177;31;33120;-65
2022/03/16 00:17:48;;;;;;;;;;;;;;;14.00;28.24;100008.25;4494443;31;34475;-65
2022/03/16 00:20:17;;;;;;;;;;;;;;;13.78;28.86;100002.97;4495164;31;33947;-65
2022/03/16 00:22:46;;;;;;;;;;;;;;;14.15;28.48;100001.53;4494907;31;32212;-64
2022/03/16 00:25:14;;;;;;;;;;;;;;;14.20;28.45;100001.16;4480502;31;33149;-63
2022/03/16 00:27:42;;;;;;;;;;;;;;;14.07;28.62;99997.81;4481179;31;34573;-65
2022/03/16 00:30:11;;;;;;;;;;;;;;;14.35;28.96;99993.59;4482254;31;34383;-65
2022/03/16 00:32:42;;;;;;;;;;;;;;;14.32;29.44;99993.87;4480068;31;34250;-66
2022/03/16 00:35:10;;;;;;;;;;;;;;;14.39;30.03;99992.34;4485164;31;34163;-64
2022/03/16 00:37:39;;;;;;;;;;;;;;;14.58;29.94;99976.31;4488558;31;34483;-65
2022/03/16 00:40:09;;;;;;;;;;;;;;;14.94;30.62;99994.75;4482939;31;33842;-64
2022/03/16 00:42:37;;;;;;;;;;;;;;;15.10;30.52;99981.62;4487433;31;33184;-63
2022/03/16 00:45:06;;;;;;;;;;;;;;;14.88;29.97;99978.13;4484290;31;34921;-66
2022/03/16 00:47:34;;;;;;;;;;;;;;;14.06;32.09;99988.88;4478945;31;33871;-64
2022/03/16 00:50:02;;;;;;;;;;;;;;;14.40;32.26;99983.28;4480513;31;35207;-65
2022/03/16 00:52:31;;;;;;;;;;;;;;;14.51;33.02;99972.47;4481231;31;33233;-66
2022/03/16 00:55:00;;;;;;;;;;;;;;;14.90;32.59;99969.94;4481718;31;35235;-66
2022/03/16 00:57:28;;;;;;;;;;;;;;;14.79;33.03;99965.47;4480742;31;33111;-66
2022/03/16 00:59:58;;;;;;;;;;;;;;;14.81;32.23;99960.81;4481139;31;35184;-63
2022/03/16 01:02:26;;;;;;;;;;;;;;;15.06;32.72;99948.69;4480870;31;33406;-63
2022/03/16 01:04:58;;;;;;;;;;;;;;;14.95;32.04;99948.78;4477363;31;32790;-64
2022/03/16 01:07:26;;;;;;;;;;;;;;;14.76;32.99;99948.72;4480919;31;35172;-64
2022/03/16 01:09:54;;;;;;;;;;;;;;;14.80;32.88;99945.66;4479809;31;33853;-64
2022/03/16 01:12:23;;;;;;;;;;;;;;;14.81;33.35;99949.19;4485442;31;33343;-64
2022/03/16 01:14:51;;;;;;;;;;;;;;;14.52;33.75;99949.06;4483435;31;34378;-65
2022/03/16 01:17:20;;;;;;;;;;;;;;;14.94;33.44;99952.50;4484891;31;32497;-66
2022/03/16 01:19:48;;;;;;;;;;;;;;;15.12;33.04;99952.69;4485849;31;35376;-63
2022/03/16 01:22:17;;;;;;;;;;;;;;;15.18;32.99;99956.66;4491271;31;33344;-64
2022/03/16 01:24:46;;;;;;;;;;;;;;;15.20;33.30;99958.22;4480288;31;34254;-65
2022/03/16 01:27:15;;;;;;;;;;;;;;;15.14;33.75;99966.84;4479399;31;35252;-66
2022/03/16 01:29:48;;;;;;;;;;;;;;;15.13;33.33;99970.56;4487406;31;33099;-66
2022/03/16 01:32:17;;;;;;;;;;;;;;;15.20;33.50;99982.47;4481752;31;33701;-64
2022/03/16 01:34:46;;;;;;;;;;;;;;;15.22;33.60;99985.91;4482959;31;35080;-63
2022/03/16 01:37:14;;;;;;;;;;;;;;;14.86;33.83;99990.03;4482300;31;34320;-66
2022/03/16 01:39:42;;;;;;;;;;;;;;;14.68;34.68;99998.75;4484577;31;35248;-63
2022/03/16 01:42:11;;;;;;;;;;;;;;;14.67;34.11;99996.22;4491936;31;31762;-64
2022/03/16 01:44:40;;;;;;;;;;;;;;;14.78;34.05;99998.81;4486747;31;34101;-66
2022/03/16 01:47:09;;;;;;;;;;;;;;;14.62;33.65;99998.47;4485054;31;32966;-63
2022/03/16 01:49:38;;;;;;;;;;;;;;;14.63;34.05;99986.69;4479677;31;32867;-63
2022/03/16 01:52:07;;;;;;;;;;;;;;;14.74;33.81;99989.31;4484933;31;34490;-66
2022/03/16 01:54:36;;;;;;;;;;;;;;;14.69;34.06;99988.84;4491249;31;34073;-65
2022/03/16 01:57:06;;;;;;;;;;;;;;;14.53;34.57;99983.94;4467839;31;34363;-64
2022/03/16 01:59:35;;;;;;;;;;;;;;;14.80;34.07;99977.97;4468152;32;35424;-62
2022/03/16 02:02:04;;;;;;;;;;;;;;;14.79;34.76;99970.00;4487419;31;33046;-66
2022/03/16 02:04:33;;;;;;;;;;;;;;;14.72;33.87;99974.25;4482807;31;34362;-66
2022/03/16 02:07:01;;;;;;;;;;;;;;;14.69;34.52;99975.38;4483994;31;35509;-66
2022/03/16 02:09:29;;;;;;;;;;;;;;;14.72;34.71;99979.63;4474040;31;34277;-62
2022/03/16 02:11:58;;;;;;;;;;;;;;;14.80;34.93;99988.75;4491476;31;33291;-63
2022/03/16 02:14:27;;;;;;;;;;;;;;;14.84;35.05;99976.72;4492394;31;34912;-63
2022/03/16 02:16:58;;;;;;;;;;;;;;;14.74;35.30;99967.75;4481011;31;35096;-63
2022/03/16 02:19:27;;;;;;;;;;;;;;;14.73;35.65;99973.25;4489649;31;32771;-62
2022/03/16 02:22:00;;;;;;;;;;;;;;;14.76;35.66;99962.19;4492491;31;33217;-61
2022/03/16 02:24:29;;;;;;;;;;;;;;;14.72;35.90;99961.63;4492894;31;32873;-63
2022/03/16 02:26:58;;;;;;;;;;;;;;;14.56;36.75;99955.87;4482229;31;34412;-64
2022/03/16 02:29:31;;;;;;;;;;;;;;;14.45;36.71;99952.28;4490091;31;34232;-62
2022/03/16 02:32:05;;;;;;;;;;;;;;;14.65;36.20;99947.84;4483242;31;34498;-63
2022/03/16 02:34:34;;;;;;;;;;;;;;;14.63;36.83;99941.72;4496753;31;35679;-65
2022/03/16 02:37:02;;;;;;;;;;;;;;;14.71;36.64;99929.44;4489010;31;34305;-63
2022/03/16 02:39:30;;;;;;;;;;;;;;;14.56;36.88;99924.41;4483691;31;35255;-62
2022/03/16 02:41:59;;;;;;;;;;;;;;;14.32;37.32;99919.34;4488604;31;33359;-63
2022/03/16 02:44:27;;;;;;;;;;;;;;;14.56;36.85;99920.88;4484796;31;34362;-62
2022/03/16 02:46:56;;;;;;;;;;;;;;;14.54;37.36;99910.25;4485739;31;34187;-65
2022/03/16 02:49:24;;;;;;;;;;;;;;;14.50;37.69;99913.31;4493078;31;32249;-61
2022/03/16 02:51:52;;;;;;;;;;;;;;;14.64;37.41;99903.06;4485395;31;34469;-63
2022/03/16 02:54:20;;;;;;;;;;;;;;;14.53;36.95;99900.44;4485862;31;34212;-64
2022/03/16 02:56:49;;;;;;;;;;;;;;;14.31;37.22;99906.84;4489573;31;32712;-67
2022/03/16 02:59:17;;;;;;;;;;;;;;;14.54;36.72;99893.22;4487494;31;34609;-65
2022/03/16 03:01:45;;;;;;;;;;;;;;;14.57;36.84;99895.63;4487998;31;33104;-65
2022/03/16 03:04:14;;;;;;;;;;;;;;;14.44;36.95;99887.75;4480778;31;34249;-63
2022/03/16 03:06:43;;;;;;;;;;;;;;;14.50;36.60;99889.06;4494292;31;34290;-66
2022/03/16 03:09:11;;;;;;;;;;;;;;;14.51;36.86;99891.66;4483010;31;34459;-64
2022/03/16 03:11:40;;;;;;;;;;;;;;;14.53;36.63;99886.13;4486294;31;34468;-64
2022/03/16 03:14:08;;;;;;;;;;;;;;;14.44;37.33;99885.94;4487983;31;33999;-63
2022/03/16 03:16:40;;;;;;;;;;;;;;;14.39;37.40;99879.25;4482640;32;33892;-62
2022/03/16 03:19:18;;;;;;;;;;;;;;;14.33;37.93;99877.09;4485163;31;33253;-64
2022/03/16 03:21:46;;;;;;;;;;;;;;;14.14;39.33;99875.19;4488019;31;34527;-64
2022/03/16 03:24:16;;;;;;;;;;;;;;;13.83;40.58;99864.37;4490675;31;34279;-63
2022/03/16 03:26:46;;;;;;;;;;;;;;;13.90;41.22;99860.19;4482145;31;33774;-63
2022/03/16 03:29:15;;;;;;;;;;;;;;;13.57;42.54;99852.31;4484307;31;32926;-65
2022/03/16 03:31:44;;;;;;;;;;;;;;;13.27;43.25;99846.72;4481721;31;33545;-62
2022/03/16 03:34:13;;;;;;;;;;;;;;;13.49;42.72;99836.84;4484565;31;33658;-63
2022/03/16 03:36:42;;;;;;;;;;;;;;;13.77;42.18;99826.37;4481885;31;32860;-63
2022/03/16 03:39:11;;;;;;;;;;;;;;;13.80;41.67;99824.28;4490869;31;35107;-64
2022/03/16 03:41:39;;;;;;;;;;;;;;;14.04;40.80;99799.78;4488401;31;32218;-62
2022/03/16 03:44:07;;;;;;;;;;;;;;;14.00;41.69;99792.97;4481657;31;32939;-62
2022/03/16 03:46:37;;;;;;;;;;;;;;;14.07;42.04;99783.34;4482648;31;34160;-65
2022/03/16 03:49:06;;;;;;;;;;;;;;;14.20;41.34;99796.56;4481538;31;34327;-64
2022/03/16 03:51:35;;;;;;;;;;;;;;;14.06;42.53;99783.47;4492623;31;34431;-63
2022/03/16 03:54:05;;;;;;;;;;;;;;;14.13;42.52;99798.13;4490449;31;34394;-62
2022/03/16 03:56:34;;;;;;;;;;;;;;;13.69;43.83;99784.03;4480815;31;35026;-65
2022/03/16 03:59:04;;;;;;;;;;;;;;;14.10;42.54;99764.25;4480291;31;32811;-63
2022/03/16 04:01:33;;;;;;;;;;;;;;;13.68;43.65;99776.97;4485164;31;33332;-63
2022/03/16 04:04:02;;;;;;;;;;;;;;;14.03;43.07;99775.66;4483228;31;32925;-65
2022/03/16 04:06:37;;;;;;;;;;;;;;;13.93;43.50;99765.75;4484620;31;34056;-63
2022/03/16 04:09:06;;;;;;;;;;;;;;;14.29;42.54;99762.59;4489211;31;37003;-64
2022/03/16 04:11:34;;;;;;;;;;;;;;;14.41;42.74;99756.97;4492028;31;33194;-63
2022/03/16 04:14:02;;;;;;;;;;;;;;;14.25;42.88;99762.00;4481892;31;34316;-64
2022/03/16 04:16:31;;;;;;;;;;;;;;;14.23;42.80;99755.06;4481737;31;35090;-63
2022/03/16 04:19:00;;;;;;;;;;;;;;;14.40;42.71;99759.78;4480259;31;32688;-63
2022/03/16 04:21:28;;;;;;;;;;;;;;;14.42;42.60;99747.88;4484727;31;33317;-63
2022/03/16 04:23:56;;;;;;;;;;;;;;;14.23;43.16;99755.06;4483519;31;33833;-63
2022/03/16 04:26:24;;;;;;;;;;;;;;;14.31;43.18;99758.75;4488619;31;37627;-65
2022/03/16 04:28:52;;;;;;;;;;;;;;;14.37;42.97;99765.44;4486675;31;33047;-65
2022/03/16 04:31:21;;;;;;;;;;;;;;;14.38;43.15;99764.44;4481426;31;33221;-64
2022/03/16 04:33:49;;;;;;;;;;;;;;;14.51;42.04;99761.53;4489541;31;33106;-64
2022/03/16 04:36:17;;;;;;;;;;;;;;;14.13;41.21;99755.91;4481946;31;34550;-64
2022/03/16 04:38:46;;;;;;;;;;;;;;;14.31;40.75;99752.53;4474743;32;33141;-65
2022/03/16 04:41:14;;;;;;;;;;;;;;;14.43;40.42;99756.81;4489475;31;32401;-63
2022/03/16 04:43:42;;;;;;;;;;;;;;;14.39;40.81;99766.16;4492639;31;34765;-64
2022/03/16 04:46:11;;;;;;;;;;;;;;;14.46;40.35;99759.22;4482248;31;33977;-65
2022/03/16 04:48:39;;;;;;;;;;;;;;;13.94;40.12;99758.53;4483336;31;35170;-65
2022/03/16 04:51:13;;;;;;;;;;;;;;;14.19;39.11;99755.34;4486673;31;33586;-64
2022/03/16 04:53:52;;;;;;;;;;;;;;;14.03;40.22;99776.56;4479416;31;32937;-64
2022/03/16 04:56:21;;;;;;;;;;;;;;;14.18;40.24;99777.00;4481497;31;33165;-64
2022/03/16 04:58:50;;;;;;;;;;;;;;;14.19;40.19;99774.19;4482179;31;33011;-63
2022/03/16 05:01:18;;;;;;;;;;;;;;;14.10;40.47;99788.47;4480234;31;33366;-64
2022/03/16 05:03:59;;;;;;;;;;;;;;;13.89;41.47;99780.44;4481211;31;32657;-64
2022/03/16 05:06:39;;;;;;;;;;;;;;;14.15;40.83;99791.59;4490721;31;32964;-64
2022/03/16 05:09:20;;;;;;;;;;;;;;;14.03;40.58;99790.00;4482431;31;33108;-63
2022/03/16 05:11:56;;;;;;;;;;;;;;;14.05;40.86;99798.78;4483236;31;33418;-64
2022/03/16 05:14:34;;;;;;;;;;;;;;;14.33;40.62;99796.31;4480682;31;33826;-65
2022/03/16 05:17:17;;;;;;;;;;;;;;;14.10;41.04;99801.06;4485742;31;34315;-64
2022/03/16 05:19:54;;;;;;;;;;;;;;;13.97;41.24;99804.84;4483450;31;35472;-63
2022/03/16 05:22:33;;;;;;;;;;;;;;;14.20;40.64;99805.50;4491256;31;32100;-65
2022/03/16 05:25:12;;;;;;;;;;;;;;;14.33;40.76;99807.09;4487407;31;32844;-63
2022/03/16 05:27:50;;;;;;;;;;;;;;;13.66;42.02;99808.50;4493209;31;33158;-64
2022/03/16 05:30:27;;;;;;;;;;;;;;;14.15;41.05;99804.19;4495782;31;33395;-65
2022/03/16 05:33:08;;;;;;;;;;;;;;;14.09;41.50;99802.91;4481842;31;34092;-66
2022/03/16 05:35:47;;;;;;;;;;;;;;;13.99;41.78;99802.00;4492914;31;34744;-65
2022/03/16 05:38:24;;;;;;;;;;;;;;;14.13;41.89;99798.97;4483015;31;33374;-65
2022/03/16 05:40:57;;;;;;;;;;;;;;;14.27;41.67;99789.66;4485240;31;34012;-67
2022/03/16 05:43:38;;;;;;;;;;;;;;;14.20;41.51;99794.72;4481961;31;31844;-67
2022/03/16 05:46:15;;;;;;;;;;;;;;;14.38;41.71;99786.84;4483873;32;33231;-65
2022/03/16 05:49:00;;;;;;;;;;;;;;;14.33;41.85;99797.19;4483841;31;33258;-64
2022/03/16 05:51:41;;;;;;;;;;;;;;;14.30;41.96;99797.44;4484377;31;33025;-65
2022/03/16 05:54:17;;;;;;;;;;;;;;;14.05;43.10;99804.16;4489886;31;31548;-62
2022/03/16 05:57:01;;;;;;;;;;;;;;;14.24;42.50;99805.22;4487802;31;32877;-63
2022/03/16 05:59:37;;;;;;;;;;;;;;;13.90;43.06;99813.56;4490572;31;32723;-66
2022/03/16 06:02:18;;;;;;;;;;;;;;;13.77;43.31;99835.31;4487566;31;34598;-66
2022/03/16 06:05:00;;;;;;;;;;;;;;;13.88;42.79;99845.16;4484147;31;32005;-65
2022/03/16 06:07:34;;;;;;;;;;;;;;;13.49;44.06;99848.47;4482937;31;32987;-63
2022/03/16 06:10:17;;;;;;;;;;;;;;;14.18;42.72;99834.37;4487984;31;33179;-64
2022/03/16 06:13:00;;;;;;;;;;;;;;;14.58;41.71;99828.19;4485262;31;33038;-66
2022/03/16 06:15:48;;;;;;;;;;;;;;;14.36;41.83;99839.13;4490673;31;32201;-64
2022/03/16 06:18:25;;;;;;;;;;;;;;;14.63;41.44;99838.53;4487880;31;32813;-65
2022/03/16 06:21:02;;;;;;;;;;;;;;;14.61;41.73;99835.97;4485038;31;33137;-64
2022/03/16 06:23:41;;;;;;;;;;;;;;;14.46;42.58;99845.41;4483596;31;34428;-65
2022/03/16 06:26:19;;;;;;;;;;;;;;;14.38;43.29;99838.03;4491539;31;33800;-64
2022/03/16 06:28:58;;;;;;;;;;;;;;;14.58;42.92;99836.25;4491116;31;34363;-64
2022/03/16 06:31:29;;;;;;;;;;;;;;;14.26;43.63;99839.09;4490583;31;34440;-64
2022/03/16 06:34:05;;;;;;;;;;;;;;;14.07;44.90;99833.63;4481595;31;34040;-64
2022/03/16 06:36:43;;;;;;;;;;;;;;;14.10;45.16;99838.75;4482273;31;33914;-63
2022/03/16 06:39:23;;;;;;;;;;;;;;;14.20;45.31;99835.09;4482999;31;33707;-66
2022/03/16 06:42:02;;;;;;;;;;;;;;;14.23;45.43;99839.38;4484446;31;34547;-65
2022/03/16 06:44:41;;;;;;;;;;;;;;;14.11;45.99;99827.00;4484055;31;32911;-66
2022/03/16 06:47:17;;;;;;;;;;;;;;;14.33;45.69;99844.78;4484422;31;31141;-66
2022/03/16 06:50:05;;;;;;;;;;;;;;;14.02;46.65;99850.19;4487127;31;34245;-65
2022/03/16 06:52:45;;;;;;;;;;;;;;;14.15;46.34;99849.94;4492622;31;32923;-66
2022/03/16 06:55:17;;;;;;;;;;;;;;;14.11;46.36;99846.69;4486757;31;33774;-66
2022/03/16 06:58:01;;;;;;;;;;;;;;;14.40;45.97;99844.09;4485100;31;32273;-64
2022/03/16 07:00:38;;;;;;;;;;;;;;;14.15;46.81;99850.81;4487652;31;32861;-64
2022/03/16 07:03:13;;;;;;;;;;;;;;;14.26;46.86;99847.19;4491456;31;34014;-65
2022/03/16 07:05:50;;;;;;;;;;;;;;;13.91;47.07;99859.19;4488274;31;32919;-65
2022/03/16 07:08:46;;;;;;;;;;;;;;;13.75;48.35;99858.81;4487428;31;33604;-64
2022/03/16 07:11:38;;;;;;;;;;;;;;;13.54;49.01;99871.41;4487123;31;32880;-65
2022/03/16 07:14:30;;;;;;;;;;;;;;;13.54;49.17;99863.34;4484443;31;32317;-66
2022/03/16 07:17:08;;;;;;;;;;;;;;;13.61;48.86;99865.41;4485397;31;34131;-64
2022/03/16 07:19:45;;;;;;;;;;;;;;;13.17;50.63;99856.53;4483667;31;33137;-65
2022/03/16 07:22:29;;;;;;;;;;;;;;;13.41;50.18;99860.84;4490953;31;34309;-65
2022/03/16 07:25:28;;;;;;;;;;;;;;;12.85;51.57;99861.03;4490907;31;33152;-65
2022/03/16 07:28:09;;;;;;;;;;;;;;;13.02;51.52;99860.47;4492799;31;32691;-63
2022/03/16 07:30:43;;;;;;;;;;;;;;;12.98;52.11;99864.41;4484994;31;32032;-63
2022/03/16 07:33:18;;;;;;;;;;;;;;;12.62;53.03;99852.19;4483866;31;34050;-64
2022/03/16 07:35:57;;;;;;;;;;;;;;;12.59;53.94;99858.66;4485323;31;34110;-65
2022/03/16 07:38:43;;;;;;;;;;;;;;;12.88;53.06;99858.94;4488550;31;34175;-63
2022/03/16 07:41:22;;;;;;;;;;;;;;;12.55;53.07;99857.16;4382630;31;3617142;-64
2022/03/16 07:44:05;;;;;;;;;;;;;;;12.34;54.93;99852.56;4483250;31;32924;-66
2022/03/16 07:46:45;;;;;;;;;;;;;;;12.33;54.86;99861.63;4486377;31;33549;-66
2022/03/16 07:49:17;;;;;;;;;;;;;;;12.42;54.22;99872.56;4488310;31;34172;-65
2022/03/16 07:52:01;;;;;;;;;;;;;;;12.88;53.84;99872.37;4494803;31;32178;-66
2022/03/16 07:54:36;;;;;;;;;;;;;;;12.84;53.79;99873.63;4487323;31;33768;-67
2022/03/16 07:57:10;;;;;;;;;;;;;;;12.92;53.97;99881.03;4485600;31;33774;-67
2022/03/16 07:59:56;;;;;;;;;;;;;;;13.22;52.83;99877.63;4487797;31;34208;-67
2022/03/16 08:02:34;;;;;;;;;;;;;;;12.74;54.05;99875.31;4481976;31;32202;-67
2022/03/16 08:05:10;;;;;;;;;;;;;;;12.82;53.94;99881.78;4485462;31;34231;-65
2022/03/16 08:07:51;;;;;;;;;;;;;;;12.74;54.71;99884.22;4484004;31;34034;-65
2022/03/16 08:10:30;;;;;;;;;;;;;;;13.01;53.80;99885.66;4495137;31;32821;-65
2022/03/16 08:13:11;;;;;;;;;;;;;;;13.17;52.97;99890.62;4490099;31;33257;-65
2022/03/16 08:15:55;;;;;;;;;;;;;;;13.24;53.20;99890.00;4489040;31;35243;-65
2022/03/16 08:18:29;;;;;;;;;;;;;;;12.78;54.77;99895.59;4473148;31;31709;-65
2022/03/16 08:21:07;;;;;;;;;;;;;;;12.53;55.23;99891.38;4497846;31;33267;-65
2022/03/16 08:23:46;;;;;;;;;;;;;;;13.05;53.60;99887.94;4490462;31;32201;-65
2022/03/16 08:26:24;;;;;;;;;;;;;;;13.41;52.59;99896.63;4490992;31;32993;-64
2022/03/16 08:29:07;;;;;;;;;;;;;;;13.83;51.42;99898.50;4483399;31;33823;-65
2022/03/16 08:31:48;;;;;;;;;;;;;;;13.22;53.17;99896.44;4487922;31;34062;-65
2022/03/16 08:34:22;;;;;;;;;;;;;;;13.61;50.40;99903.03;4483039;31;33280;-65
2022/03/16 08:37:10;;;;;;;;;;;;;;;13.47;50.42;99906.03;4489109;31;33035;-65
2022/03/16 08:39:52;;;;;;;;;;;;;;;13.10;52.04;99910.88;4483828;31;34385;-65
2022/03/16 08:42:38;;;;;;;;;;;;;;;13.10;52.04;99910.88;4486490;31;33309;-64
2022/03/16 08:45:19;;;;;;;;;;;;;;;13.59;51.13;99912.22;4485416;31;32127;-65
2022/03/16 08:47:57;;;;;;;;;;;;;;;13.58;51.70;99906.00;4488340;31;33059;-64
2022/03/16 08:50:30;;;;;;;;;;;;;;;13.37;53.12;99913.16;4482150;31;33484;-65
2022/03/16 08:53:02;;;;;;;;;;;;;;;13.45;52.76;99919.63;4483082;31;35519;-64
2022/03/16 08:55:34;;;;;;;;;;;;;;;12.94;54.30;99922.06;4484834;31;33298;-64
2022/03/16 08:58:14;;;;;;;;;;;;;;;12.72;53.46;99931.87;4485302;31;33050;-65
2022/03/16 09:00:45;;;;;;;;;;;;;;;12.67;54.80;99934.06;4484036;31;35659;-65
2022/03/16 09:03:17;;;;;;;;;;;;;;;12.79;54.86;99938.44;4481976;31;34466;-65
2022/03/16 09:05:46;;;;;;;;;;;;;;;13.25;53.02;99937.38;4486157;31;34038;-65
2022/03/16 09:08:18;;;;;;;;;;;;;;;13.05;52.94;99940.84;4487766;31;33888;-65
2022/03/16 09:10:50;;;;;;;;;;;;;;;12.58;54.33;99938.34;4491142;31;33542;-65
2022/03/16 09:13:23;;;;;;;;;;;;;;;12.75;53.82;99937.00;4484825;31;33998;-65
2022/03/16 09:15:54;;;;;;;;;;;;;;;12.34;54.44;99943.81;4487529;31;34062;-65
2022/03/16 09:18:27;;;;;;;;;;;;;;;12.24;53.85;99936.62;4487580;31;33241;-65
2022/03/16 09:21:01;;;;;;;;;;;;;;;12.42;55.24;99942.34;4487001;31;35525;-65
2022/03/16 09:23:33;;;;;;;;;;;;;;;12.71;54.22;99950.78;4487053;31;33262;-65
2022/03/16 09:26:02;;;;;;;;;;;;;;;11.77;56.41;99952.72;4489349;31;34000;-65
2022/03/16 09:28:32;;;;;;;;;;;;;;;12.72;53.22;99964.09;4489901;31;35208;-65
2022/03/16 09:31:03;;;;;;;;;;;;;;;12.41;54.33;99972.88;4484259;31;34169;-65
2022/03/16 09:33:34;;;;;;;;;;;;;;;12.27;54.21;99968.59;4485933;31;34294;-65
2022/03/16 09:36:08;;;;;;;;;;;;;;;10.89;58.25;99971.78;4485505;31;32240;-65
2022/03/16 09:38:43;;;;;;;;;;;;;;;10.57;59.30;99976.75;4487945;31;35185;-65
2022/03/16 09:41:16;;;;;;;;;;;;;;;10.45;60.22;99986.50;4482086;31;34667;-65
2022/03/16 09:43:49;;;;;;;;;;;;;;;10.39;60.52;99986.94;4483719;31;34167;-65
2022/03/16 09:46:27;;;;;;;;;;;;;;;10.78;60.61;99995.78;4474075;31;33158;-65
2022/03/16 09:48:59;;;;;;;;;;;;;;;10.68;59.31;99997.41;4467916;31;33754;-65
2022/03/16 09:51:35;;;;;;;;;;;;;;;11.17;59.37;100001.88;4484820;31;35193;-65
2022/03/16 09:54:08;;;;;;;;;;;;;;;11.15;58.73;100002.00;4490323;31;34283;-65
2022/03/16 09:56:43;;;;;;;;;;;;;;;10.81;60.38;100006.25;4484520;31;33199;-65
2022/03/16 09:59:20;;;;;;;;;;;;;;;11.18;58.07;100017.88;4490626;31;34074;-65
2022/03/16 10:02:07;;;;;;;;;;;;;;;10.89;59.43;100019.97;4486586;31;33915;-65
2022/03/16 10:04:41;;;;;;;;;;;;;;;11.05;59.85;100016.19;4485061;31;32362;-65
2022/03/16 10:07:12;;;;;;;;;;;;;;;10.94;60.25;100025.00;4488092;31;34126;-65
2022/03/16 10:15:28;;;;;;;;;;;;;;;12.07;56.32;100018.41;4483903;31;33688;-65
2022/03/16 10:17:59;;;;;;;;;;;;;;;11.85;56.10;100025.44;4485998;31;33157;-64
2022/03/16 10:20:30;;;;;;;;;;;;;;;11.58;56.26;100027.47;4494382;31;34131;-65
2022/03/16 10:23:07;;;;;;;;;;;;;;;11.58;57.69;100024.78;4493214;31;32983;-65
2022/03/16 10:25:42;;;;;;;;;;;;;;;11.73;56.42;100030.84;4483924;31;33846;-65
2022/03/16 10:28:17;;;;;;;;;;;;;;;12.13;54.50;100036.72;4471311;31;32201;-65
2022/03/16 10:30:57;;;;;;;;;;;;;;;12.41;53.91;100026.56;4485921;31;34231;-65
2022/03/16 10:33:33;;;;;;;;;;;;;;;11.84;53.96;100026.38;4487603;31;32904;-65
2022/03/16 10:36:09;;;;;;;;;;;;;;;12.03;54.63;100033.03;4487749;31;34592;-65
2022/03/16 10:38:38;;;;;;;;;;;;;;;11.34;56.88;100031.00;4485121;31;31985;-64
2022/03/16 10:47:11;;;;;;;;;;;;;;;11.73;55.93;100030.84;4488313;31;33356;-65
2022/03/16 10:49:43;;;;;;;;;;;;;;;12.08;54.93;100025.50;4488857;31;32642;-65
2022/03/16 10:52:21;;;;;;;;;;;;;;;12.34;54.61;100040.47;4487088;31;34997;-65
2022/03/16 10:54:52;;;;;;;;;;;;;;;11.73;55.56;100036.19;4484808;31;35464;-65
2022/03/16 10:57:24;;;;;;;;;;;;;;;11.49;55.79;100042.41;4485141;31;33112;-65
2022/03/16 10:59:55;;;;;;;;;;;;;;;11.23;57.42;100044.31;4476829;31;34445;-65
2022/03/16 11:02:33;;;;;;;;;;;;;;;11.60;56.27;100033.56;4473059;31;34025;-64
2022/03/16 11:05:05;;;;;;;;;;;;;;;11.25;57.74;100046.91;4479332;31;34080;-64
2022/03/16 11:07:38;;;;;;;;;;;;;;;11.65;55.96;100039.44;4473429;31;33068;-65
2022/03/16 11:10:09;;;;;;;;;;;;;;;11.73;55.79;100047.78;4475351;31;32170;-65
2022/03/16 11:15:33;;;;;;;;;;;;;;;11.50;56.56;100049.50;4489350;31;37109;-65
2022/03/16 11:18:03;;;;;;;;;;;;;;;11.87;55.26;100058.34;4484593;31;34041;-65
2022/03/16 11:20:33;;;;;;;;;;;;;;;12.13;53.83;100052.81;4475958;31;32390;-65
2022/03/16 11:26:03;;;;;;;;;;;;;;;12.09;53.82;100056.72;4472496;31;33389;-65
2022/03/16 11:28:38;;;;;;;;;;;;;;;12.09;53.30;100059.41;4480757;31;33194;-65
2022/03/16 11:31:08;;;;;;;;;;;;;;;11.57;55.40;100066.81;4473461;31;32209;-65
2022/03/16 11:33:49;;;;;;;;;;;;;;;12.33;53.19;100070.97;4485307;31;34949;-65
2022/03/16 11:36:35;;;;;;;;;;;;;;;12.30;50.44;100071.19;4490554;31;34332;-65
2022/03/16 11:39:17;;;;;;;;;;;;;;;12.10;53.26;100058.44;4486276;31;34293;-65
2022/03/16 11:41:48;;;;;;;;;;;;;;;12.52;52.17;100062.34;4484155;31;34596;-65
2022/03/16 11:44:26;;;;;;;;;;;;;;;12.45;52.50;100069.12;4487792;31;34271;-65
2022/03/16 11:47:16;;;;;;;;;;;;;;;12.29;52.44;100069.47;4487433;31;35134;-65
2022/03/16 11:50:03;;;;;;;;;;;;;;;12.85;50.61;100075.94;4483230;31;35240;-65
2022/03/16 11:52:49;;;;;;;;;;;;;;;13.19;49.93;100074.06;4492096;31;33182;-65
2022/03/16 11:55:50;;;;;;;;;;;;;;;14.14;47.38;100075.22;4485101;31;34171;-66
2022/03/16 11:58:32;;;;;;;;;;;;;;;13.05;49.19;100073.34;4452582;31;35320;-66
2022/03/16 12:01:18;;;;;;;;;;;;;;;13.68;47.67;100080.91;4488564;31;33856;-65
2022/03/16 12:03:46;;;;;;;;;;;;;;;13.37;48.05;100080.69;4487002;31;32065;-66
2022/03/16 12:06:14;;;;;;;;;;;;;;;13.86;47.11;100086.56;4484722;31;35060;-66
2022/03/16 12:08:51;;;;;;;;;;;;;;;14.09;47.07;100082.84;4480306;31;35331;-65
2022/03/16 12:14:11;;;;;;;;;;;;;;;13.86;47.01;100084.72;4489072;31;32396;-65
2022/03/16 12:16:42;;;;;;;;;;;;;;;14.35;45.26;100085.13;4483056;31;34822;-66
2022/03/16 12:19:27;;;;;;;;;;;;;;;15.06;43.86;100094.25;4485894;31;34265;-66
2022/03/16 12:21:56;;;;;;;;;;;;;;;14.76;44.62;100096.91;4482408;31;35210;-66
2022/03/16 12:30:26;;;;;;;;;;;;;;;14.97;43.99;100105.84;4442317;32;35320;-66
2022/03/16 12:32:55;;;;;;;;;;;;;;;15.09;43.90;100103.94;4443451;32;33702;-66
2022/03/16 12:35:25;;;;;;;;;;;;;;;15.16;43.17;100094.31;4464733;31;33332;-64
2022/03/16 12:37:53;;;;;;;;;;;;;;;15.76;42.59;100105.13;4462102;31;33682;-64
2022/03/16 12:40:21;;;;;;;;;;;;;;;15.45;42.98;100096.25;4485245;31;35523;-64
2022/03/16 12:42:53;;;;;;;;;;;;;;;15.66;42.35;100088.06;4483934;31;34724;-64
2022/03/16 12:45:20;;;;;;;;;;;;;;;14.85;43.25;100098.81;4488141;31;32004;-64
2022/03/16 12:47:54;;;;;;;;;;;;;;;15.11;42.62;100107.31;4481123;31;33985;-65
2022/03/16 12:50:24;;;;;;;;;;;;;;;14.82;42.95;100107.19;4470525;31;33910;-64
2022/03/16 12:52:52;;;;;;;;;;;;;;;13.40;46.40;100111.87;4466161;31;36461;-64
2022/03/16 12:55:20;;;;;;;;;;;;;;;13.60;46.24;100113.78;4483769;31;32407;-65
2022/03/16 12:57:57;;;;;;;;;;;;;;;13.23;47.04;100127.47;4485096;31;34332;-64
2022/03/16 13:00:38;;;;;;;;;;;;;;;12.39;48.87;100133.19;4470581;31;34446;-63
2022/03/16 13:03:15;;;;;;;;;;;;;;;11.41;51.32;100144.81;4484047;31;32376;-65
2022/03/16 13:05:44;;;;;;;;;;;;;;;11.38;51.59;100155.75;4483589;31;33784;-63
2022/03/16 13:08:11;;;;;;;;;;;;;;;11.84;50.44;100162.28;4487388;31;35745;-64
2022/03/16 13:13:27;;;;;;;;;;;;;;;11.73;50.09;100164.91;4473049;31;33974;-63
2022/03/16 13:15:57;;;;;;;;;;;;;;;12.03;49.17;100167.19;4483847;31;32243;-65
2022/03/16 13:18:28;;;;;;;;;;;;;;;12.24;48.68;100168.28;4486329;31;33214;-65
2022/03/16 13:20:56;;;;;;;;;;;;;;;12.99;47.15;100161.66;4487059;31;34332;-64
2022/03/16 13:23:29;;;;;;;;;;;;;;;13.18;46.25;100161.94;4484520;31;33226;-64
2022/03/16 13:26:10;;;;;;;;;;;;;;;13.52;45.28;100172.72;4480976;31;31974;-64
2022/03/16 13:28:38;;;;;;;;;;;;;;;14.21;44.09;100167.91;4483204;31;33755;-65
2022/03/16 13:31:06;;;;;;;;;;;;;;;14.33;43.27;100171.44;4483359;31;35444;-64
2022/03/16 13:33:34;;;;;;;;;;;;;;;14.43;43.00;100185.84;4475984;31;35143;-64
2022/03/16 13:36:08;;;;;;;;;;;;;;;14.85;42.13;100195.84;4470858;31;33449;-65
2022/03/16 13:38:37;;;;;;;;;;;;;;;14.51;42.20;100198.72;4483991;31;34474;-64
2022/03/16 13:41:11;;;;;;;;;;;;;;;14.91;41.76;100192.63;4487534;31;34035;-64
2022/03/16 13:43:39;;;;;;;;;;;;;;;14.65;41.85;100198.38;4489330;31;34381;-64